sensor_id;sensor_type;location;lat;lon;timestamp;temperature;humidity
3312;DHT22;1668;49.648;8.570;2023-11-21T00:00:00;9.00;99.90
3312;DHT22;1668;49.648;8.570;2023-11-21T00:02:27;9.00;99.90
3312;DHT22;1668;49.648;8.570;2023-11-21T00:04:55;9.00;99.90
3312;DHT22;1668;49.648;8.570;2023-11-21T00:07:22;9.00;99.90
3312;DHT22;1668;49.648;8.570;2023-11-21T00:09:49;9.00;99.90
3312;DHT22;1668;49.648;8.570;2023-11-21T00:12:16;9.00;99.90
3312;DHT22;1668;49.648;8.570;2023-11-21T00:14:43;8.90;99.90
3312;DHT22;1668;49.648;8.570;2023-11-21T00:17:16;9.00;99.90
3312;DHT22;1668;49.648;8.570;2023-11-21T00:19:43;9.00;99.90
3312;DHT22;1668;49.648;8.570;2023-11-21T00:22:11;9.00;99.90
3312;DHT22;1668;49.648;8.570;2023-11-21T00:24:38;9.00;99.90
3312;DHT22;1668;49.648;8.570;2023-11-21T00:27:05;9.00;99.90
3312;DHT22;1668;49.648;8.570;2023-11-21T00:29:32;9.00;99.90
3312;DHT22;1668;49.648;8.570;2023-11-21T00:31:58;8.90;99.90
3312;DHT22;1668;49.648;8.570;2023-11-21T00:34:25;8.90;99.90
3312;DHT22;1668;49.648;8.570;2023-11-21T00:36:51;9.00;99.90
3312;DHT22;1668;49.648;8.570;2023-11-21T00:39:20;9.00;99.90
3312;DHT22;1668;49.648;8.570;2023-11-21T00:41:47;8.90;99.90
3312;DHT22;1668;49.648;8.570;2023-11-21T00:44:14;8.90;99.90
3312;DHT22;1668;49.648;8.570;2023-11-21T00:46:41;8.90;99.90
3312;DHT22;1668;49.648;8.570;2023-11-21T00:49:08;8.90;99.90
3312;DHT22;1668;49.648;8.570;2023-11-21T00:51:35;8.90;99.90
3312;DHT22;1668;49.648;8.570;2023-11-21T00:54:02;8.90;99.90
3312;DHT22;1668;49.648;8.570;2023-11-21T00:56:30;8.90;99.90
3312;DHT22;1668;49.648;8.570;2023-11-21T00:58:57;8.90;99.90
3312;DHT22;1668;49.648;8.570;2023-11-21T01:01:24;8.90;99.90
3312;DHT22;1668;49.648;8.570;2023-11-21T01:03:51;8.90;99.90
3312;DHT22;1668;49.648;8.570;2023-11-21T01:06:17;8.90;99.90
3312;DHT22;1668;49.648;8.570;2023-11-21T01:08:45;8.90;99.90
3312;DHT22;1668;49.648;8.570;2023-11-21T01:11:12;8.90;99.90
3312;DHT22;1668;49.648;8.570;2023-11-21T01:13:41;8.90;99.90
3312;DHT22;1668;49.648;8.570;2023-11-21T01:16:08;8.90;99.90
3312;DHT22;1668;49.648;8.570;2023-11-21T01:18:35;8.90;99.90
3312;DHT22;1668;49.648;8.570;2023-11-21T01:21:02;8.90;99.90
3312;DHT22;1668;49.648;8.570;2023-11-21T01:23:29;8.90;99.90
3312;DHT22;1668;49.648;8.570;2023-11-21T01:25:56;8.90;99.90
3312;DHT22;1668;49.648;8.570;2023-11-21T01:28:23;8.90;99.90
3312;DHT22;1668;49.648;8.570;2023-11-21T01:30:51;8.90;99.90
3312;DHT22;1668;49.648;8.570;2023-11-21T01:33:21;8.90;99.90
3312;DHT22;1668;49.648;8.570;2023-11-21T01:35:50;8.90;99.90
3312;DHT22;1668;49.648;8.570;2023-11-21T01:38:18;9.00;99.90
3312;DHT22;1668;49.648;8.570;2023-11-21T01:40:45;8.90;99.90
3312;DHT22;1668;49.648;8.570;2023-11-21T01:43:12;8.90;99.90
3312;DHT22;1668;49.648;8.570;2023-11-21T01:45:39;8.90;99.90
3312;DHT22;1668;49.648;8.570;2023-11-21T01:48:07;8.90;99.90
3312;DHT22;1668;49.648;8.570;2023-11-21T01:50:35;8.90;99.90
3312;DHT22;1668;49.648;8.570;2023-11-21T01:53:02;8.90;99.90
3312;DHT22;1668;49.648;8.570;2023-11-21T01:55:28;9.00;99.90
3312;DHT22;1668;49.648;8.570;2023-11-21T01:57:56;9.00;99.90
3312;DHT22;1668;49.648;8.570;2023-11-21T02:00:23;8.90;99.90
3312;DHT22;1668;49.648;8.570;2023-11-21T02:02:51;8.90;99.90
3312;DHT22;1668;49.648;8.570;2023-11-21T02:05:20;9.00;99.90
3312;DHT22;1668;49.648;8.570;2023-11-21T02:07:47;8.90;99.90
3312;DHT22;1668;49.648;8.570;2023-11-21T02:10:15;9.00;99.90
3312;DHT22;1668;49.648;8.570;2023-11-21T02:12:43;9.00;99.90
3312;DHT22;1668;49.648;8.570;2023-11-21T02:15:10;9.00;99.90
3312;DHT22;1668;49.648;8.570;2023-11-21T02:17:41;9.00;99.90
3312;DHT22;1668;49.648;8.570;2023-11-21T02:20:10;9.00;99.90
3312;DHT22;1668;49.648;8.570;2023-11-21T02:22:42;9.00;99.90
3312;DHT22;1668;49.648;8.570;2023-11-21T02:25:10;9.00;99.90
3312;DHT22;1668;49.648;8.570;2023-11-21T02:27:37;9.00;99.90
3312;DHT22;1668;49.648;8.570;2023-11-21T02:30:05;9.00;99.90
3312;DHT22;1668;49.648;8.570;2023-11-21T02:32:33;9.00;99.90
3312;DHT22;1668;49.648;8.570;2023-11-21T02:35:00;9.00;99.90
3312;DHT22;1668;49.648;8.570;2023-11-21T02:37:28;9.00;99.90
3312;DHT22;1668;49.648;8.570;2023-11-21T02:39:55;9.00;99.90
3312;DHT22;1668;49.648;8.570;2023-11-21T02:42:23;9.00;99.90
3312;DHT22;1668;49.648;8.570;2023-11-21T02:44:50;9.00;99.90
3312;DHT22;1668;49.648;8.570;2023-11-21T02:47:16;9.00;99.90
3312;DHT22;1668;49.648;8.570;2023-11-21T02:49:43;9.00;99.90
3312;DHT22;1668;49.648;8.570;2023-11-21T02:52:10;9.00;99.90
3312;DHT22;1668;49.648;8.570;2023-11-21T02:54:37;9.00;99.90
3312;DHT22;1668;49.648;8.570;2023-11-21T02:57:04;9.00;99.90
3312;DHT22;1668;49.648;8.570;2023-11-21T02:59:32;9.00;99.90
3312;DHT22;1668;49.648;8.570;2023-11-21T03:02:00;9.00;99.90
3312;DHT22;1668;49.648;8.570;2023-11-21T03:04:27;9.00;99.90
3312;DHT22;1668;49.648;8.570;2023-11-21T03:06:54;9.00;99.90
3312;DHT22;1668;49.648;8.570;2023-11-21T03:09:20;9.00;99.90
3312;DHT22;1668;49.648;8.570;2023-11-21T03:11:47;9.00;99.90
3312;DHT22;1668;49.648;8.570;2023-11-21T03:14:14;9.00;99.90
3312;DHT22;1668;49.648;8.570;2023-11-21T03:16:42;9.00;99.90
3312;DHT22;1668;49.648;8.570;2023-11-21T03:19:10;9.00;99.90
3312;DHT22;1668;49.648;8.570;2023-11-21T03:21:37;9.00;99.90
3312;DHT22;1668;49.648;8.570;2023-11-21T03:24:05;9.00;99.90
3312;DHT22;1668;49.648;8.570;2023-11-21T03:26:32;9.00;99.90
3312;DHT22;1668;49.648;8.570;2023-11-21T03:28:59;9.00;99.90
3312;DHT22;1668;49.648;8.570;2023-11-21T03:31:26;9.00;99.90
3312;DHT22;1668;49.648;8.570;2023-11-21T03:33:54;9.00;99.90
3312;DHT22;1668;49.648;8.570;2023-11-21T03:36:21;9.00;99.90
3312;DHT22;1668;49.648;8.570;2023-11-21T03:38:50;9.00;99.90
3312;DHT22;1668;49.648;8.570;2023-11-21T03:41:17;9.00;99.90
3312;DHT22;1668;49.648;8.570;2023-11-21T03:43:44;9.00;99.90
3312;DHT22;1668;49.648;8.570;2023-11-21T03:46:11;9.00;99.90
3312;DHT22;1668;49.648;8.570;2023-11-21T03:48:38;9.00;99.90
3312;DHT22;1668;49.648;8.570;2023-11-21T03:51:06;9.00;99.90
3312;DHT22;1668;49.648;8.570;2023-11-21T03:53:33;9.00;99.90
3312;DHT22;1668;49.648;8.570;2023-11-21T03:56:02;9.00;99.90
3312;DHT22;1668;49.648;8.570;2023-11-21T03:58:29;9.00;99.90
3312;DHT22;1668;49.648;8.570;2023-11-21T04:00:56;9.00;99.90
3312;DHT22;1668;49.648;8.570;2023-11-21T04:03:22;9.00;99.90
3312;DHT22;1668;49.648;8.570;2023-11-21T04:05:49;9.00;99.90
3312;DHT22;1668;49.648;8.570;2023-11-21T04:08:17;9.00;99.90
3312;DHT22;1668;49.648;8.570;2023-11-21T04:10:44;9.00;99.90
3312;DHT22;1668;49.648;8.570;2023-11-21T04:13:11;9.00;99.90
3312;DHT22;1668;49.648;8.570;2023-11-21T04:15:38;9.00;99.90
3312;DHT22;1668;49.648;8.570;2023-11-21T04:18:05;9.00;99.90
3312;DHT22;1668;49.648;8.570;2023-11-21T04:20:31;9.00;99.90
3312;DHT22;1668;49.648;8.570;2023-11-21T04:22:58;9.00;99.90
3312;DHT22;1668;49.648;8.570;2023-11-21T04:25:26;9.00;99.90
3312;DHT22;1668;49.648;8.570;2023-11-21T04:27:53;9.00;99.90
3312;DHT22;1668;49.648;8.570;2023-11-21T04:30:20;9.00;99.90
3312;DHT22;1668;49.648;8.570;2023-11-21T04:32:47;9.00;99.90
3312;DHT22;1668;49.648;8.570;2023-11-21T04:35:14;9.00;99.90
3312;DHT22;1668;49.648;8.570;2023-11-21T04:37:41;9.00;99.90
3312;DHT22;1668;49.648;8.570;2023-11-21T04:40:08;9.00;99.90
3312;DHT22;1668;49.648;8.570;2023-11-21T04:42:37;9.00;99.90
3312;DHT22;1668;49.648;8.570;2023-11-21T04:45:05;9.00;99.90
3312;DHT22;1668;49.648;8.570;2023-11-21T04:47:35;9.00;99.90
3312;DHT22;1668;49.648;8.570;2023-11-21T04:50:02;9.10;99.90
3312;DHT22;1668;49.648;8.570;2023-11-21T04:52:29;9.00;99.90
3312;DHT22;1668;49.648;8.570;2023-11-21T04:54:56;9.10;99.90
3312;DHT22;1668;49.648;8.570;2023-11-21T04:57:24;9.10;99.90
3312;DHT22;1668;49.648;8.570;2023-11-21T04:59:52;9.10;99.90
3312;DHT22;1668;49.648;8.570;2023-11-21T05:02:19;9.10;99.90
3312;DHT22;1668;49.648;8.570;2023-11-21T05:04:46;9.10;99.90
3312;DHT22;1668;49.648;8.570;2023-11-21T05:07:13;9.10;99.90
3312;DHT22;1668;49.648;8.570;2023-11-21T05:09:42;9.10;99.90
3312;DHT22;1668;49.648;8.570;2023-11-21T05:12:11;9.10;99.90
3312;DHT22;1668;49.648;8.570;2023-11-21T05:14:38;9.00;99.90
3312;DHT22;1668;49.648;8.570;2023-11-21T05:17:06;9.10;99.90
3312;DHT22;1668;49.648;8.570;2023-11-21T05:19:34;9.10;99.90
3312;DHT22;1668;49.648;8.570;2023-11-21T05:22:02;9.10;99.90
3312;DHT22;1668;49.648;8.570;2023-11-21T05:24:29;9.10;99.90
3312;DHT22;1668;49.648;8.570;2023-11-21T05:26:56;9.10;99.90
3312;DHT22;1668;49.648;8.570;2023-11-21T05:29:23;9.10;99.90
3312;DHT22;1668;49.648;8.570;2023-11-21T05:31:51;9.10;99.90
3312;DHT22;1668;49.648;8.570;2023-11-21T05:34:19;9.10;99.90
3312;DHT22;1668;49.648;8.570;2023-11-21T05:36:49;9.10;99.90
3312;DHT22;1668;49.648;8.570;2023-11-21T05:39:16;9.10;99.90
3312;DHT22;1668;49.648;8.570;2023-11-21T05:41:44;9.10;99.90
3312;DHT22;1668;49.648;8.570;2023-11-21T05:44:11;9.10;99.90
3312;DHT22;1668;49.648;8.570;2023-11-21T05:46:40;9.10;99.90
3312;DHT22;1668;49.648;8.570;2023-11-21T05:49:08;9.10;99.90
3312;DHT22;1668;49.648;8.570;2023-11-21T05:51:36;9.10;99.90
3312;DHT22;1668;49.648;8.570;2023-11-21T05:54:04;9.10;99.90
3312;DHT22;1668;49.648;8.570;2023-11-21T05:56:31;9.10;99.90
3312;DHT22;1668;49.648;8.570;2023-11-21T05:58:58;9.00;99.90
3312;DHT22;1668;49.648;8.570;2023-11-21T06:01:25;9.10;99.90
3312;DHT22;1668;49.648;8.570;2023-11-21T06:03:53;9.10;99.90
3312;DHT22;1668;49.648;8.570;2023-11-21T06:06:21;9.10;99.90
3312;DHT22;1668;49.648;8.570;2023-11-21T06:08:49;9.10;99.90
3312;DHT22;1668;49.648;8.570;2023-11-21T06:11:16;9.10;99.90
3312;DHT22;1668;49.648;8.570;2023-11-21T06:13:43;9.10;99.90
3312;DHT22;1668;49.648;8.570;2023-11-21T06:16:10;9.10;99.90
3312;DHT22;1668;49.648;8.570;2023-11-21T06:18:38;9.10;99.90
3312;DHT22;1668;49.648;8.570;2023-11-21T06:21:06;9.10;99.90
3312;DHT22;1668;49.648;8.570;2023-11-21T06:23:35;9.10;99.90
3312;DHT22;1668;49.648;8.570;2023-11-21T06:26:04;9.10;99.90
3312;DHT22;1668;49.648;8.570;2023-11-21T06:28:32;9.10;99.90
3312;DHT22;1668;49.648;8.570;2023-11-21T06:30:58;9.10;99.90
3312;DHT22;1668;49.648;8.570;2023-11-21T06:33:30;9.10;99.90
3312;DHT22;1668;49.648;8.570;2023-11-21T06:35:57;9.10;99.90
3312;DHT22;1668;49.648;8.570;2023-11-21T06:38:24;9.10;99.90
3312;DHT22;1668;49.648;8.570;2023-11-21T06:40:55;9.10;99.90
3312;DHT22;1668;49.648;8.570;2023-11-21T06:43:23;9.10;99.90
3312;DHT22;1668;49.648;8.570;2023-11-21T06:45:50;9.10;99.90
3312;DHT22;1668;49.648;8.570;2023-11-21T06:48:17;9.10;99.90
3312;DHT22;1668;49.648;8.570;2023-11-21T06:50:44;9.10;99.90
3312;DHT22;1668;49.648;8.570;2023-11-21T06:53:12;9.10;99.90
3312;DHT22;1668;49.648;8.570;2023-11-21T06:55:39;9.10;99.90
3312;DHT22;1668;49.648;8.570;2023-11-21T06:58:05;9.10;99.90
3312;DHT22;1668;49.648;8.570;2023-11-21T07:00:34;9.10;99.90
3312;DHT22;1668;49.648;8.570;2023-11-21T07:03:00;9.10;99.90
3312;DHT22;1668;49.648;8.570;2023-11-21T07:05:27;9.10;99.90
3312;DHT22;1668;49.648;8.570;2023-11-21T07:07:54;9.10;99.90
3312;DHT22;1668;49.648;8.570;2023-11-21T07:10:21;9.10;99.90
3312;DHT22;1668;49.648;8.570;2023-11-21T07:12:47;9.00;99.90
3312;DHT22;1668;49.648;8.570;2023-11-21T07:15:14;9.10;99.90
3312;DHT22;1668;49.648;8.570;2023-11-21T07:17:43;9.00;99.90
3312;DHT22;1668;49.648;8.570;2023-11-21T07:20:11;9.00;99.90
3312;DHT22;1668;49.648;8.570;2023-11-21T07:22:38;9.10;99.90
3312;DHT22;1668;49.648;8.570;2023-11-21T07:25:06;9.00;99.90
3312;DHT22;1668;49.648;8.570;2023-11-21T07:27:32;9.00;99.90
3312;DHT22;1668;49.648;8.570;2023-11-21T07:30:01;9.00;99.90
3312;DHT22;1668;49.648;8.570;2023-11-21T07:32:30;9.00;99.90
3312;DHT22;1668;49.648;8.570;2023-11-21T07:34:58;9.00;99.90
3312;DHT22;1668;49.648;8.570;2023-11-21T07:37:26;9.00;99.90
3312;DHT22;1668;49.648;8.570;2023-11-21T07:39:54;8.90;99.90
3312;DHT22;1668;49.648;8.570;2023-11-21T07:42:22;8.90;99.90
3312;DHT22;1668;49.648;8.570;2023-11-21T07:44:48;8.90;99.90
3312;DHT22;1668;49.648;8.570;2023-11-21T07:47:16;8.90;99.90
3312;DHT22;1668;49.648;8.570;2023-11-21T07:49:42;8.90;99.90
3312;DHT22;1668;49.648;8.570;2023-11-21T07:52:11;8.90;99.90
3312;DHT22;1668;49.648;8.570;2023-11-21T07:54:38;8.90;99.90
3312;DHT22;1668;49.648;8.570;2023-11-21T07:57:05;8.90;99.90
3312;DHT22;1668;49.648;8.570;2023-11-21T07:59:32;8.90;99.90
3312;DHT22;1668;49.648;8.570;2023-11-21T08:01:58;8.90;99.90
3312;DHT22;1668;49.648;8.570;2023-11-21T08:04:25;8.90;99.90
3312;DHT22;1668;49.648;8.570;2023-11-21T08:06:52;8.90;99.90
3312;DHT22;1668;49.648;8.570;2023-11-21T08:09:20;8.90;99.90
3312;DHT22;1668;49.648;8.570;2023-11-21T08:11:49;8.90;99.90
3312;DHT22;1668;49.648;8.570;2023-11-21T08:14:17;8.90;99.90
3312;DHT22;1668;49.648;8.570;2023-11-21T08:16:44;8.90;99.90
3312;DHT22;1668;49.648;8.570;2023-11-21T08:19:11;8.90;99.90
3312;DHT22;1668;49.648;8.570;2023-11-21T08:21:37;8.90;99.90
3312;DHT22;1668;49.648;8.570;2023-11-21T08:24:06;8.90;99.90
3312;DHT22;1668;49.648;8.570;2023-11-21T08:26:37;9.00;99.90
3312;DHT22;1668;49.648;8.570;2023-11-21T08:29:04;9.00;99.90
3312;DHT22;1668;49.648;8.570;2023-11-21T08:31:32;9.00;99.90
3312;DHT22;1668;49.648;8.570;2023-11-21T08:33:59;9.00;99.90
3312;DHT22;1668;49.648;8.570;2023-11-21T08:36:28;9.00;99.90
3312;DHT22;1668;49.648;8.570;2023-11-21T08:38:57;9.00;99.90
3312;DHT22;1668;49.648;8.570;2023-11-21T08:41:24;9.00;99.90
3312;DHT22;1668;49.648;8.570;2023-11-21T08:43:54;9.00;99.90
3312;DHT22;1668;49.648;8.570;2023-11-21T08:46:23;9.00;99.90
3312;DHT22;1668;49.648;8.570;2023-11-21T08:48:51;9.10;99.90
3312;DHT22;1668;49.648;8.570;2023-11-21T08:51:18;9.00;99.90
3312;DHT22;1668;49.648;8.570;2023-11-21T08:53:46;9.10;99.90
3312;DHT22;1668;49.648;8.570;2023-11-21T08:56:13;9.10;99.90
3312;DHT22;1668;49.648;8.570;2023-11-21T08:58:40;9.10;99.90
3312;DHT22;1668;49.648;8.570;2023-11-21T09:01:09;9.10;99.90
3312;DHT22;1668;49.648;8.570;2023-11-21T09:03:37;9.10;99.90
3312;DHT22;1668;49.648;8.570;2023-11-21T09:06:04;9.10;99.90
3312;DHT22;1668;49.648;8.570;2023-11-21T09:08:31;9.10;99.90
3312;DHT22;1668;49.648;8.570;2023-11-21T09:10:58;9.10;99.90
3312;DHT22;1668;49.648;8.570;2023-11-21T09:13:25;9.20;99.90
3312;DHT22;1668;49.648;8.570;2023-11-21T09:15:51;9.20;99.90
3312;DHT22;1668;49.648;8.570;2023-11-21T09:18:20;9.10;99.90
3312;DHT22;1668;49.648;8.570;2023-11-21T09:20:46;9.10;99.90
3312;DHT22;1668;49.648;8.570;2023-11-21T09:23:13;9.20;99.90
3312;DHT22;1668;49.648;8.570;2023-11-21T09:25:41;9.20;99.90
3312;DHT22;1668;49.648;8.570;2023-11-21T09:28:11;9.20;99.90
3312;DHT22;1668;49.648;8.570;2023-11-21T09:30:38;9.20;99.90
3312;DHT22;1668;49.648;8.570;2023-11-21T09:33:05;9.30;99.90
3312;DHT22;1668;49.648;8.570;2023-11-21T09:35:35;9.30;99.90
3312;DHT22;1668;49.648;8.570;2023-11-21T09:38:02;9.30;99.90
3312;DHT22;1668;49.648;8.570;2023-11-21T09:40:31;9.30;99.90
3312;DHT22;1668;49.648;8.570;2023-11-21T09:42:58;9.30;99.90
3312;DHT22;1668;49.648;8.570;2023-11-21T09:45:26;9.30;99.90
3312;DHT22;1668;49.648;8.570;2023-11-21T09:47:54;9.40;99.90
3312;DHT22;1668;49.648;8.570;2023-11-21T09:50:21;9.40;99.90
3312;DHT22;1668;49.648;8.570;2023-11-21T09:52:55;9.40;99.90
3312;DHT22;1668;49.648;8.570;2023-11-21T09:55:26;9.40;99.90
3312;DHT22;1668;49.648;8.570;2023-11-21T09:57:56;9.40;99.90
3312;DHT22;1668;49.648;8.570;2023-11-21T10:00:23;9.40;99.90
3312;DHT22;1668;49.648;8.570;2023-11-21T10:02:50;9.40;99.90
3312;DHT22;1668;49.648;8.570;2023-11-21T10:05:18;9.40;99.90
3312;DHT22;1668;49.648;8.570;2023-11-21T10:07:46;9.40;99.90
3312;DHT22;1668;49.648;8.570;2023-11-21T10:10:18;9.40;99.90
3312;DHT22;1668;49.648;8.570;2023-11-21T10:12:49;9.40;99.90
3312;DHT22;1668;49.648;8.570;2023-11-21T10:15:22;9.40;99.90
3312;DHT22;1668;49.648;8.570;2023-11-21T10:17:49;9.40;99.90
3312;DHT22;1668;49.648;8.570;2023-11-21T10:20:19;9.40;99.90
3312;DHT22;1668;49.648;8.570;2023-11-21T10:22:46;9.40;99.90
3312;DHT22;1668;49.648;8.570;2023-11-21T10:25:14;9.40;99.90
3312;DHT22;1668;49.648;8.570;2023-11-21T10:27:42;9.50;99.90
3312;DHT22;1668;49.648;8.570;2023-11-21T10:30:10;9.50;99.90
3312;DHT22;1668;49.648;8.570;2023-11-21T10:32:37;9.50;99.90
3312;DHT22;1668;49.648;8.570;2023-11-21T10:35:06;9.50;99.90
3312;DHT22;1668;49.648;8.570;2023-11-21T10:37:35;9.50;99.90
3312;DHT22;1668;49.648;8.570;2023-11-21T10:40:06;9.60;99.90
3312;DHT22;1668;49.648;8.570;2023-11-21T10:42:34;9.60;99.90
3312;DHT22;1668;49.648;8.570;2023-11-21T10:45:01;9.60;99.90
3312;DHT22;1668;49.648;8.570;2023-11-21T10:47:31;9.60;99.90
3312;DHT22;1668;49.648;8.570;2023-11-21T10:50:00;9.70;99.90
3312;DHT22;1668;49.648;8.570;2023-11-21T10:52:27;9.70;99.90
3312;DHT22;1668;49.648;8.570;2023-11-21T10:54:54;9.70;99.90
3312;DHT22;1668;49.648;8.570;2023-11-21T10:57:25;9.70;99.90
3312;DHT22;1668;49.648;8.570;2023-11-21T10:59:54;9.70;99.90
3312;DHT22;1668;49.648;8.570;2023-11-21T11:02:24;9.80;99.90
3312;DHT22;1668;49.648;8.570;2023-11-21T11:04:53;9.80;99.90
3312;DHT22;1668;49.648;8.570;2023-11-21T11:07:21;9.80;99.90
3312;DHT22;1668;49.648;8.570;2023-11-21T11:09:51;9.80;99.90
3312;DHT22;1668;49.648;8.570;2023-11-21T11:12:19;9.80;99.90
3312;DHT22;1668;49.648;8.570;2023-11-21T11:14:45;9.90;99.90
3312;DHT22;1668;49.648;8.570;2023-11-21T11:17:14;9.90;99.90
3312;DHT22;1668;49.648;8.570;2023-11-21T11:19:41;9.90;99.90
3312;DHT22;1668;49.648;8.570;2023-11-21T11:22:19;10.00;99.90
3312;DHT22;1668;49.648;8.570;2023-11-21T11:25:12;10.00;99.90
3312;DHT22;1668;49.648;8.570;2023-11-21T11:27:50;10.10;99.90
3312;DHT22;1668;49.648;8.570;2023-11-21T11:30:30;10.10;99.90
3312;DHT22;1668;49.648;8.570;2023-11-21T11:33:10;10.20;99.90
3312;DHT22;1668;49.648;8.570;2023-11-21T11:35:53;10.20;99.90
3312;DHT22;1668;49.648;8.570;2023-11-21T11:38:23;10.20;99.90
3312;DHT22;1668;49.648;8.570;2023-11-21T11:40:53;10.20;99.90
3312;DHT22;1668;49.648;8.570;2023-11-21T11:43:25;10.30;99.90
3312;DHT22;1668;49.648;8.570;2023-11-21T11:45:53;10.30;99.90
3312;DHT22;1668;49.648;8.570;2023-11-21T11:48:23;10.30;99.90
3312;DHT22;1668;49.648;8.570;2023-11-21T11:51:03;10.30;99.90
3312;DHT22;1668;49.648;8.570;2023-11-21T11:53:35;10.30;99.90
3312;DHT22;1668;49.648;8.570;2023-11-21T11:56:26;10.30;99.90
3312;DHT22;1668;49.648;8.570;2023-11-21T11:58:57;10.40;99.90
3312;DHT22;1668;49.648;8.570;2023-11-21T12:01:26;10.40;99.90
3312;DHT22;1668;49.648;8.570;2023-11-21T12:04:24;10.40;99.90
3312;DHT22;1668;49.648;8.570;2023-11-21T12:06:59;10.40;99.90
3312;DHT22;1668;49.648;8.570;2023-11-21T12:09:28;10.40;99.90
3312;DHT22;1668;49.648;8.570;2023-11-21T12:11:57;10.40;99.90
3312;DHT22;1668;49.648;8.570;2023-11-21T12:14:24;10.50;99.90
3312;DHT22;1668;49.648;8.570;2023-11-21T12:16:51;10.50;99.90
3312;DHT22;1668;49.648;8.570;2023-11-21T12:19:19;10.60;99.90
3312;DHT22;1668;49.648;8.570;2023-11-21T12:21:49;10.70;99.90
3312;DHT22;1668;49.648;8.570;2023-11-21T12:24:16;11.00;99.90
3312;DHT22;1668;49.648;8.570;2023-11-21T12:26:43;11.20;99.90
3312;DHT22;1668;49.648;8.570;2023-11-21T12:29:11;11.20;99.90
3312;DHT22;1668;49.648;8.570;2023-11-21T12:31:37;11.30;99.90
3312;DHT22;1668;49.648;8.570;2023-11-21T12:34:05;11.30;99.90
3312;DHT22;1668;49.648;8.570;2023-11-21T12:36:32;11.30;99.90
3312;DHT22;1668;49.648;8.570;2023-11-21T12:39:02;11.40;99.90
3312;DHT22;1668;49.648;8.570;2023-11-21T12:41:29;11.40;99.90
3312;DHT22;1668;49.648;8.570;2023-11-21T12:43:57;11.40;99.90
3312;DHT22;1668;49.648;8.570;2023-11-21T12:46:24;11.40;99.90
3312;DHT22;1668;49.648;8.570;2023-11-21T12:48:55;11.40;99.90
3312;DHT22;1668;49.648;8.570;2023-11-21T12:51:22;11.40;99.90
3312;DHT22;1668;49.648;8.570;2023-11-21T12:53:49;11.40;99.90
3312;DHT22;1668;49.648;8.570;2023-11-21T12:56:17;11.40;99.90
3312;DHT22;1668;49.648;8.570;2023-11-21T12:58:46;11.40;99.90
3312;DHT22;1668;49.648;8.570;2023-11-21T13:01:13;11.40;99.90
3312;DHT22;1668;49.648;8.570;2023-11-21T13:03:46;11.40;99.90
3312;DHT22;1668;49.648;8.570;2023-11-21T13:06:14;11.30;99.90
3312;DHT22;1668;49.648;8.570;2023-11-21T13:08:41;11.40;99.90
3312;DHT22;1668;49.648;8.570;2023-11-21T13:11:11;11.30;99.90
3312;DHT22;1668;49.648;8.570;2023-11-21T13:13:41;11.30;99.90
3312;DHT22;1668;49.648;8.570;2023-11-21T13:16:09;11.30;99.90
3312;DHT22;1668;49.648;8.570;2023-11-21T13:18:36;11.30;99.90
3312;DHT22;1668;49.648;8.570;2023-11-21T13:21:06;11.40;99.90
3312;DHT22;1668;49.648;8.570;2023-11-21T13:23:37;11.30;99.90
3312;DHT22;1668;49.648;8.570;2023-11-21T13:26:04;11.30;99.90
3312;DHT22;1668;49.648;8.570;2023-11-21T13:28:31;11.30;99.90
3312;DHT22;1668;49.648;8.570;2023-11-21T13:31:00;11.30;99.90
3312;DHT22;1668;49.648;8.570;2023-11-21T13:33:35;11.30;99.90
3312;DHT22;1668;49.648;8.570;2023-11-21T13:36:04;11.30;99.90
3312;DHT22;1668;49.648;8.570;2023-11-21T13:38:33;11.30;99.90
3312;DHT22;1668;49.648;8.570;2023-11-21T13:41:01;11.30;99.90
3312;DHT22;1668;49.648;8.570;2023-11-21T13:43:28;11.30;99.90
3312;DHT22;1668;49.648;8.570;2023-11-21T13:45:56;11.30;99.90
3312;DHT22;1668;49.648;8.570;2023-11-21T13:48:28;11.30;99.90
3312;DHT22;1668;49.648;8.570;2023-11-21T13:51:00;11.30;99.90
3312;DHT22;1668;49.648;8.570;2023-11-21T13:53:36;11.30;99.90
3312;DHT22;1668;49.648;8.570;2023-11-21T13:56:04;11.30;98.80
3312;DHT22;1668;49.648;8.570;2023-11-21T13:58:32;11.30;99.90
3312;DHT22;1668;49.648;8.570;2023-11-21T14:01:07;11.20;99.90
3312;DHT22;1668;49.648;8.570;2023-11-21T14:03:43;11.20;77.50
3312;DHT22;1668;49.648;8.570;2023-11-21T14:06:17;11.20;21.50
3312;DHT22;1668;49.648;8.570;2023-11-21T14:08:49;11.20;55.00
3312;DHT22;1668;49.648;8.570;2023-11-21T14:11:16;11.20;19.80
3312;DHT22;1668;49.648;8.570;2023-11-21T14:13:44;11.10;1.00
3312;DHT22;1668;49.648;8.570;2023-11-21T14:16:14;11.10;1.00
3312;DHT22;1668;49.648;8.570;2023-11-21T14:18:43;11.10;1.00
3312;DHT22;1668;49.648;8.570;2023-11-21T14:21:21;11.00;1.00
3312;DHT22;1668;49.648;8.570;2023-11-21T14:23:48;11.00;1.00
3312;DHT22;1668;49.648;8.570;2023-11-21T14:26:15;11.00;1.00
3312;DHT22;1668;49.648;8.570;2023-11-21T14:28:42;11.00;1.00
3312;DHT22;1668;49.648;8.570;2023-11-21T14:31:09;10.90;1.00
3312;DHT22;1668;49.648;8.570;2023-11-21T14:33:38;10.90;1.00
3312;DHT22;1668;49.648;8.570;2023-11-21T14:36:08;10.90;1.00
3312;DHT22;1668;49.648;8.570;2023-11-21T14:38:35;10.90;1.00
3312;DHT22;1668;49.648;8.570;2023-11-21T14:41:02;10.90;1.00
3312;DHT22;1668;49.648;8.570;2023-11-21T14:43:32;10.80;1.00
3312;DHT22;1668;49.648;8.570;2023-11-21T14:46:00;10.80;1.00
3312;DHT22;1668;49.648;8.570;2023-11-21T14:48:28;10.80;11.10
3312;DHT22;1668;49.648;8.570;2023-11-21T14:51:09;10.80;34.30
3312;DHT22;1668;49.648;8.570;2023-11-21T14:53:53;10.80;27.40
3312;DHT22;1668;49.648;8.570;2023-11-21T14:56:20;10.80;49.10
3312;DHT22;1668;49.648;8.570;2023-11-21T14:58:52;10.80;31.20
3312;DHT22;1668;49.648;8.570;2023-11-21T15:01:20;10.80;53.20
3312;DHT22;1668;49.648;8.570;2023-11-21T15:03:59;10.70;65.70
3312;DHT22;1668;49.648;8.570;2023-11-21T15:06:27;10.70;41.40
3312;DHT22;1668;49.648;8.570;2023-11-21T15:08:57;10.70;72.10
3312;DHT22;1668;49.648;8.570;2023-11-21T15:11:56;10.70;62.90
3312;DHT22;1668;49.648;8.570;2023-11-21T15:14:29;10.60;63.60
3312;DHT22;1668;49.648;8.570;2023-11-21T15:16:57;10.60;92.40
3312;DHT22;1668;49.648;8.570;2023-11-21T15:19:25;10.60;1.00
3312;DHT22;1668;49.648;8.570;2023-11-21T15:21:54;10.50;1.70
3312;DHT22;1668;49.648;8.570;2023-11-21T15:24:22;10.60;21.80
3312;DHT22;1668;49.648;8.570;2023-11-21T15:26:48;10.50;1.00
3312;DHT22;1668;49.648;8.570;2023-11-21T15:29:16;10.50;1.00
3312;DHT22;1668;49.648;8.570;2023-11-21T15:31:43;10.50;1.00
3312;DHT22;1668;49.648;8.570;2023-11-21T15:34:14;10.50;1.00
3312;DHT22;1668;49.648;8.570;2023-11-21T15:36:41;10.50;1.00
3312;DHT22;1668;49.648;8.570;2023-11-21T15:39:09;10.50;1.00
3312;DHT22;1668;49.648;8.570;2023-11-21T15:41:37;10.40;1.00
3312;DHT22;1668;49.648;8.570;2023-11-21T15:44:05;10.40;1.00
3312;DHT22;1668;49.648;8.570;2023-11-21T15:46:35;10.40;4.80
3312;DHT22;1668;49.648;8.570;2023-11-21T15:49:03;10.40;34.20
3312;DHT22;1668;49.648;8.570;2023-11-21T15:51:38;10.40;7.60
3312;DHT22;1668;49.648;8.570;2023-11-21T15:54:05;10.40;29.70
3312;DHT22;1668;49.648;8.570;2023-11-21T15:56:34;10.40;62.50
3312;DHT22;1668;49.648;8.570;2023-11-21T15:59:01;10.30;54.80
3312;DHT22;1668;49.648;8.570;2023-11-21T16:01:30;10.30;93.90
3312;DHT22;1668;49.648;8.570;2023-11-21T16:03:56;10.30;99.90
3312;DHT22;1668;49.648;8.570;2023-11-21T16:06:26;10.30;99.90
3312;DHT22;1668;49.648;8.570;2023-11-21T16:08:54;10.30;99.90
3312;DHT22;1668;49.648;8.570;2023-11-21T16:11:24;10.20;99.90
3312;DHT22;1668;49.648;8.570;2023-11-21T16:13:52;10.30;99.90
3312;DHT22;1668;49.648;8.570;2023-11-21T16:16:22;10.30;99.90
3312;DHT22;1668;49.648;8.570;2023-11-21T16:18:49;10.20;99.90
3312;DHT22;1668;49.648;8.570;2023-11-21T16:21:16;10.20;99.90